sensor_id;sensor_type;location;lat;lon;timestamp;P1;durP1;ratioP1;P2;durP2;ratioP2
12222;SDS011;6174;49.058;8.524;2022-09-09T04:01:25;2.57;;;1.10;;
12222;SDS011;6174;49.058;8.524;2022-09-09T04:03:53;1.43;;;1.00;;
12222;SDS011;6174;49.058;8.524;2022-09-09T04:06:23;1.47;;;0.80;;
12222;SDS011;6174;49.058;8.524;2022-09-09T04:08:50;0.83;;;0.80;;
12222;SDS011;6174;49.058;8.524;2022-09-09T04:11:17;2.47;;;1.30;;
12222;SDS011;6174;49.058;8.524;2022-09-09T04:13:44;3.70;;;1.40;;
12222;SDS011;6174;49.058;8.524;2022-09-09T04:16:11;2.37;;;0.90;;
12222;SDS011;6174;49.058;8.524;2022-09-09T04:18:41;1.23;;;0.77;;
12222;SDS011;6174;49.058;8.524;2022-09-09T04:21:08;2.90;;;1.00;;
12222;SDS011;6174;49.058;8.524;2022-09-09T04:23:35;3.57;;;1.10;;
12222;SDS011;6174;49.058;8.524;2022-09-09T04:26:02;2.83;;;0.80;;
12222;SDS011;6174;49.058;8.524;2022-09-09T04:28:30;1.27;;;0.87;;
12222;SDS011;6174;49.058;8.524;2022-09-09T04:31:03;1.67;;;1.20;;
12222;SDS011;6174;49.058;8.524;2022-09-09T04:33:30;1.33;;;0.80;;
12222;SDS011;6174;49.058;8.524;2022-09-09T04:35:58;1.50;;;0.77;;
12222;SDS011;6174;49.058;8.524;2022-09-09T04:38:25;2.30;;;1.20;;
12222;SDS011;6174;49.058;8.524;2022-09-09T04:40:52;0.93;;;0.70;;
12222;SDS011;6174;49.058;8.524;2022-09-09T04:43:19;1.90;;;1.00;;
12222;SDS011;6174;49.058;8.524;2022-09-09T04:45:47;1.87;;;0.97;;
12222;SDS011;6174;49.058;8.524;2022-09-09T04:48:16;1.83;;;1.20;;
12222;SDS011;6174;49.058;8.524;2022-09-09T04:50:43;0.83;;;0.67;;
12222;SDS011;6174;49.058;8.524;2022-09-09T04:53:11;1.30;;;0.90;;
12222;SDS011;6174;49.058;8.524;2022-09-09T04:55:37;1.37;;;1.10;;
12222;SDS011;6174;49.058;8.524;2022-09-09T04:58:04;1.30;;;0.90;;
12222;SDS011;6174;49.058;8.524;2022-09-09T05:00:32;1.00;;;0.93;;
12222;SDS011;6174;49.058;8.524;2022-09-09T05:03:01;0.97;;;0.80;;
12222;SDS011;6174;49.058;8.524;2022-09-09T05:05:29;2.63;;;1.10;;
12222;SDS011;6174;49.058;8.524;2022-09-09T05:08:00;1.43;;;0.90;;
12222;SDS011;6174;49.058;8.524;2022-09-09T05:10:29;1.50;;;1.00;;
12222;SDS011;6174;49.058;8.524;2022-09-09T05:12:56;1.57;;;1.00;;
12222;SDS011;6174;49.058;8.524;2022-09-09T05:15:23;1.40;;;0.90;;
12222;SDS011;6174;49.058;8.524;2022-09-09T05:17:49;1.70;;;0.70;;
12222;SDS011;6174;49.058;8.524;2022-09-09T05:20:18;2.23;;;0.97;;
12222;SDS011;6174;49.058;8.524;2022-09-09T05:22:44;2.27;;;1.00;;
12222;SDS011;6174;49.058;8.524;2022-09-09T05:25:11;2.93;;;1.10;;
12222;SDS011;6174;49.058;8.524;2022-09-09T05:27:39;2.77;;;0.90;;
12222;SDS011;6174;49.058;8.524;2022-09-09T05:30:06;0.83;;;0.80;;
12222;SDS011;6174;49.058;8.524;2022-09-09T05:32:34;1.10;;;0.80;;
12222;SDS011;6174;49.058;8.524;2022-09-09T05:35:01;1.70;;;0.90;;
12222;SDS011;6174;49.058;8.524;2022-09-09T05:37:28;1.40;;;0.90;;
12222;SDS011;6174;49.058;8.524;2022-09-09T05:39:56;4.13;;;1.20;;
12222;SDS011;6174;49.058;8.524;2022-09-09T05:42:23;1.53;;;0.90;;
12222;SDS011;6174;49.058;8.524;2022-09-09T05:44:51;2.30;;;0.70;;
12222;SDS011;6174;49.058;8.524;2022-09-09T05:47:19;2.97;;;0.97;;
12222;SDS011;6174;49.058;8.524;2022-09-09T05:49:46;1.37;;;0.97;;
12222;SDS011;6174;49.058;8.524;2022-09-09T05:52:13;1.20;;;0.90;;
12222;SDS011;6174;49.058;8.524;2022-09-09T05:54:40;2.20;;;0.97;;
12222;SDS011;6174;49.058;8.524;2022-09-09T05:57:08;0.97;;;0.80;;
12222;SDS011;6174;49.058;8.524;2022-09-09T05:59:34;2.00;;;0.90;;
12222;SDS011;6174;49.058;8.524;2022-09-09T06:02:02;5.23;;;1.00;;
12222;SDS011;6174;49.058;8.524;2022-09-09T06:04:29;2.90;;;0.90;;
12222;SDS011;6174;49.058;8.524;2022-09-09T06:06:56;14.27;;;1.33;;
12222;SDS011;6174;49.058;8.524;2022-09-09T06:09:23;2.50;;;0.93;;
12222;SDS011;6174;49.058;8.524;2022-09-09T06:11:49;0.83;;;0.70;;
12222;SDS011;6174;49.058;8.524;2022-09-09T06:14:16;2.13;;;1.17;;
12222;SDS011;6174;49.058;8.524;2022-09-09T06:16:43;2.07;;;0.63;;
12222;SDS011;6174;49.058;8.524;2022-09-09T06:19:12;1.50;;;0.80;;
12222;SDS011;6174;49.058;8.524;2022-09-09T06:21:39;2.97;;;1.00;;
12222;SDS011;6174;49.058;8.524;2022-09-09T06:24:07;1.63;;;0.87;;
12222;SDS011;6174;49.058;8.524;2022-09-09T06:26:34;2.07;;;1.10;;
12222;SDS011;6174;49.058;8.524;2022-09-09T06:29:03;5.90;;;1.43;;
12222;SDS011;6174;49.058;8.524;2022-09-09T06:31:31;5.00;;;1.10;;
12222;SDS011;6174;49.058;8.524;2022-09-09T06:33:59;5.40;;;2.27;;
12222;SDS011;6174;49.058;8.524;2022-09-09T06:36:29;6.57;;;2.73;;
12222;SDS011;6174;49.058;8.524;2022-09-09T06:38:57;7.07;;;2.90;;
12222;SDS011;6174;49.058;8.524;2022-09-09T06:41:25;11.43;;;4.00;;
12222;SDS011;6174;49.058;8.524;2022-09-09T06:43:53;9.00;;;2.70;;
12222;SDS011;6174;49.058;8.524;2022-09-09T06:46:21;8.13;;;2.30;;
12222;SDS011;6174;49.058;8.524;2022-09-09T06:48:52;6.37;;;2.60;;
12222;SDS011;6174;49.058;8.524;2022-09-09T06:51:20;5.90;;;1.70;;
12222;SDS011;6174;49.058;8.524;2022-09-09T06:53:51;4.20;;;1.60;;
12222;SDS011;6174;49.058;8.524;2022-09-09T06:56:20;3.60;;;1.70;;
12222;SDS011;6174;49.058;8.524;2022-09-09T06:58:48;3.57;;;1.20;;
12222;SDS011;6174;49.058;8.524;2022-09-09T07:01:17;3.20;;;1.40;;
12222;SDS011;6174;49.058;8.524;2022-09-09T07:03:46;3.27;;;1.50;;
12222;SDS011;6174;49.058;8.524;2022-09-09T07:06:15;3.50;;;1.50;;
12222;SDS011;6174;49.058;8.524;2022-09-09T07:08:43;2.60;;;1.23;;
12222;SDS011;6174;49.058;8.524;2022-09-09T07:11:15;3.33;;;1.30;;
12222;SDS011;6174;49.058;8.524;2022-09-09T07:13:42;2.87;;;1.43;;
12222;SDS011;6174;49.058;8.524;2022-09-09T07:16:09;3.43;;;1.40;;
12222;SDS011;6174;49.058;8.524;2022-09-09T07:18:37;3.07;;;1.40;;
12222;SDS011;6174;49.058;8.524;2022-09-09T07:21:05;2.73;;;1.13;;
12222;SDS011;6174;49.058;8.524;2022-09-09T07:23:33;5.43;;;1.67;;
12222;SDS011;6174;49.058;8.524;2022-09-09T07:26:00;5.03;;;1.70;;
12222;SDS011;6174;49.058;8.524;2022-09-09T07:28:30;6.77;;;1.93;;
12222;SDS011;6174;49.058;8.524;2022-09-09T07:30:57;8.20;;;2.57;;
12222;SDS011;6174;49.058;8.524;2022-09-09T07:33:26;7.73;;;1.90;;
12222;SDS011;6174;49.058;8.524;2022-09-09T07:36:01;2.93;;;1.37;;
12222;SDS011;6174;49.058;8.524;2022-09-09T07:38:29;3.40;;;1.63;;
12222;SDS011;6174;49.058;8.524;2022-09-09T07:41:02;4.77;;;1.60;;
12222;SDS011;6174;49.058;8.524;2022-09-09T07:43:31;3.03;;;1.60;;
12222;SDS011;6174;49.058;8.524;2022-09-09T07:45:59;4.43;;;1.37;;
12222;SDS011;6174;49.058;8.524;2022-09-09T07:48:27;4.97;;;1.70;;
12222;SDS011;6174;49.058;8.524;2022-09-09T07:51:02;4.00;;;1.43;;
12222;SDS011;6174;49.058;8.524;2022-09-09T07:53:31;3.10;;;1.37;;
12222;SDS011;6174;49.058;8.524;2022-09-09T07:56:02;4.37;;;1.70;;
12222;SDS011;6174;49.058;8.524;2022-09-09T07:58:29;3.93;;;1.60;;
12222;SDS011;6174;49.058;8.524;2022-09-09T08:00:57;3.97;;;1.27;;
12222;SDS011;6174;49.058;8.524;2022-09-09T08:03:24;4.20;;;1.50;;
12222;SDS011;6174;49.058;8.524;2022-09-09T08:05:51;2.03;;;1.37;;
12222;SDS011;6174;49.058;8.524;2022-09-09T08:08:18;2.27;;;1.40;;
12222;SDS011;6174;49.058;8.524;2022-09-09T08:10:45;2.97;;;1.20;;
12222;SDS011;6174;49.058;8.524;2022-09-09T08:13:11;3.60;;;1.73;;
12222;SDS011;6174;49.058;8.524;2022-09-09T08:15:40;3.57;;;1.20;;
12222;SDS011;6174;49.058;8.524;2022-09-09T08:18:08;5.27;;;1.53;;
12222;SDS011;6174;49.058;8.524;2022-09-09T08:20:35;2.50;;;1.20;;
12222;SDS011;6174;49.058;8.524;2022-09-09T08:23:03;2.97;;;1.30;;
12222;SDS011;6174;49.058;8.524;2022-09-09T08:25:30;2.43;;;1.30;;
12222;SDS011;6174;49.058;8.524;2022-09-09T08:27:56;2.73;;;1.40;;
12222;SDS011;6174;49.058;8.524;2022-09-09T08:30:23;2.43;;;1.13;;
12222;SDS011;6174;49.058;8.524;2022-09-09T08:32:51;1.67;;;1.47;;
12222;SDS011;6174;49.058;8.524;2022-09-09T08:35:18;3.00;;;1.27;;
12222;SDS011;6174;49.058;8.524;2022-09-09T08:37:45;1.87;;;1.00;;
12222;SDS011;6174;49.058;8.524;2022-09-09T08:40:12;3.33;;;1.10;;
12222;SDS011;6174;49.058;8.524;2022-09-09T08:42:47;2.87;;;1.40;;
12222;SDS011;6174;49.058;8.524;2022-09-09T08:45:23;3.80;;;1.73;;
12222;SDS011;6174;49.058;8.524;2022-09-09T08:47:57;3.37;;;1.37;;
12222;SDS011;6174;49.058;8.524;2022-09-09T08:50:43;2.03;;;1.00;;
12222;SDS011;6174;49.058;8.524;2022-09-09T08:53:14;2.27;;;1.50;;
12222;SDS011;6174;49.058;8.524;2022-09-09T08:55:45;2.63;;;1.30;;
12222;SDS011;6174;49.058;8.524;2022-09-09T08:58:15;3.03;;;1.23;;
12222;SDS011;6174;49.058;8.524;2022-09-09T09:00:47;1.73;;;1.20;;
12222;SDS011;6174;49.058;8.524;2022-09-09T09:03:30;3.97;;;1.50;;
12222;SDS011;6174;49.058;8.524;2022-09-09T09:06:07;2.73;;;1.30;;
12222;SDS011;6174;49.058;8.524;2022-09-09T09:08:46;2.57;;;1.30;;
12222;SDS011;6174;49.058;8.524;2022-09-09T09:11:22;2.57;;;1.50;;
12222;SDS011;6174;49.058;8.524;2022-09-09T09:13:50;3.13;;;1.60;;
12222;SDS011;6174;49.058;8.524;2022-09-09T09:16:25;3.17;;;1.40;;
12222;SDS011;6174;49.058;8.524;2022-09-09T09:18:58;2.03;;;1.40;;
12222;SDS011;6174;49.058;8.524;2022-09-09T09:21:28;2.37;;;1.37;;
12222;SDS011;6174;49.058;8.524;2022-09-09T09:24:00;2.47;;;1.37;;
12222;SDS011;6174;49.058;8.524;2022-09-09T09:26:30;4.47;;;1.70;;
12222;SDS011;6174;49.058;8.524;2022-09-09T09:28:58;4.13;;;1.87;;
12222;SDS011;6174;49.058;8.524;2022-09-09T09:31:28;3.23;;;1.30;;
12222;SDS011;6174;49.058;8.524;2022-09-09T09:33:55;4.60;;;1.53;;
12222;SDS011;6174;49.058;8.524;2022-09-09T09:36:25;5.23;;;1.47;;
12222;SDS011;6174;49.058;8.524;2022-09-09T09:39:02;3.43;;;1.63;;
12222;SDS011;6174;49.058;8.524;2022-09-09T09:41:31;2.57;;;1.30;;
12222;SDS011;6174;49.058;8.524;2022-09-09T09:43:59;9.47;;;3.17;;
12222;SDS011;6174;49.058;8.524;2022-09-09T09:46:27;4.77;;;2.57;;
12222;SDS011;6174;49.058;8.524;2022-09-09T09:48:58;6.30;;;1.90;;
12222;SDS011;6174;49.058;8.524;2022-09-09T09:51:27;3.93;;;1.33;;
12222;SDS011;6174;49.058;8.524;2022-09-09T09:54:06;2.23;;;1.40;;
12222;SDS011;6174;49.058;8.524;2022-09-09T09:56:41;3.03;;;1.30;;
12222;SDS011;6174;49.058;8.524;2022-09-09T09:59:19;3.43;;;1.07;;
12222;SDS011;6174;49.058;8.524;2022-09-09T10:01:47;3.97;;;1.40;;
12222;SDS011;6174;49.058;8.524;2022-09-09T10:04:14;1.53;;;1.13;;
12222;SDS011;6174;49.058;8.524;2022-09-09T10:06:44;2.23;;;1.10;;
12222;SDS011;6174;49.058;8.524;2022-09-09T10:09:20;2.57;;;1.17;;
12222;SDS011;6174;49.058;8.524;2022-09-09T10:11:50;4.10;;;1.47;;
12222;SDS011;6174;49.058;8.524;2022-09-09T10:14:22;2.47;;;1.10;;
12222;SDS011;6174;49.058;8.524;2022-09-09T10:16:58;2.37;;;1.40;;
12222;SDS011;6174;49.058;8.524;2022-09-09T10:19:35;1.80;;;1.07;;
12222;SDS011;6174;49.058;8.524;2022-09-09T10:22:07;2.33;;;0.97;;
12222;SDS011;6174;49.058;8.524;2022-09-09T10:24:55;5.07;;;1.27;;
12222;SDS011;6174;49.058;8.524;2022-09-09T10:27:38;0.90;;;0.80;;
12222;SDS011;6174;49.058;8.524;2022-09-09T10:30:16;3.17;;;1.20;;
12222;SDS011;6174;49.058;8.524;2022-09-09T10:32:46;2.90;;;1.20;;
12222;SDS011;6174;49.058;8.524;2022-09-09T10:35:24;2.30;;;1.07;;
12222;SDS011;6174;49.058;8.524;2022-09-09T10:37:58;1.90;;;1.30;;
12222;SDS011;6174;49.058;8.524;2022-09-09T10:40:37;1.80;;;0.90;;
12222;SDS011;6174;49.058;8.524;2022-09-09T10:43:12;4.80;;;1.73;;
12222;SDS011;6174;49.058;8.524;2022-09-09T10:45:52;2.43;;;1.03;;
12222;SDS011;6174;49.058;8.524;2022-09-09T10:48:35;3.47;;;1.00;;
12222;SDS011;6174;49.058;8.524;2022-09-09T10:51:19;5.53;;;1.50;;
12222;SDS011;6174;49.058;8.524;2022-09-09T10:53:57;3.13;;;1.27;;
12222;SDS011;6174;49.058;8.524;2022-09-09T10:56:42;2.93;;;1.03;;
12222;SDS011;6174;49.058;8.524;2022-09-09T10:59:15;2.57;;;1.20;;
12222;SDS011;6174;49.058;8.524;2022-09-09T11:01:49;3.80;;;1.23;;
12222;SDS011;6174;49.058;8.524;2022-09-09T11:04:23;2.10;;;1.23;;
12222;SDS011;6174;49.058;8.524;2022-09-09T11:06:54;3.90;;;1.30;;
12222;SDS011;6174;49.058;8.524;2022-09-09T11:09:24;2.23;;;1.17;;
12222;SDS011;6174;49.058;8.524;2022-09-09T11:11:53;3.67;;;1.33;;
12222;SDS011;6174;49.058;8.524;2022-09-09T11:14:22;1.40;;;1.10;;
12222;SDS011;6174;49.058;8.524;2022-09-09T11:16:56;2.37;;;0.87;;
12222;SDS011;6174;49.058;8.524;2022-09-09T11:19:26;2.03;;;1.03;;
12222;SDS011;6174;49.058;8.524;2022-09-09T11:21:56;3.17;;;0.90;;
12222;SDS011;6174;49.058;8.524;2022-09-09T11:24:28;5.17;;;1.30;;
12222;SDS011;6174;49.058;8.524;2022-09-09T11:27:02;1.97;;;1.03;;
12222;SDS011;6174;49.058;8.524;2022-09-09T11:29:42;2.20;;;0.93;;
12222;SDS011;6174;49.058;8.524;2022-09-09T11:32:35;4.27;;;1.30;;
12222;SDS011;6174;49.058;8.524;2022-09-09T11:35:21;1.40;;;0.87;;
12222;SDS011;6174;49.058;8.524;2022-09-09T11:38:11;1.80;;;1.00;;
12222;SDS011;6174;49.058;8.524;2022-09-09T11:40:46;3.47;;;1.10;;
12222;SDS011;6174;49.058;8.524;2022-09-09T11:43:13;2.30;;;1.20;;
12222;SDS011;6174;49.058;8.524;2022-09-09T11:45:43;1.73;;;0.93;;
12222;SDS011;6174;49.058;8.524;2022-09-09T11:48:22;2.63;;;1.13;;
12222;SDS011;6174;49.058;8.524;2022-09-09T11:50:57;2.97;;;1.20;;
12222;SDS011;6174;49.058;8.524;2022-09-09T11:53:25;4.90;;;1.30;;
12222;SDS011;6174;49.058;8.524;2022-09-09T11:56:04;2.73;;;1.20;;
12222;SDS011;6174;49.058;8.524;2022-09-09T11:58:35;4.57;;;1.50;;
12222;SDS011;6174;49.058;8.524;2022-09-09T12:01:15;1.57;;;1.03;;
12222;SDS011;6174;49.058;8.524;2022-09-09T12:03:55;1.87;;;0.97;;
12222;SDS011;6174;49.058;8.524;2022-09-09T12:06:45;3.03;;;1.13;;
12222;SDS011;6174;49.058;8.524;2022-09-09T12:09:18;3.67;;;1.03;;
12222;SDS011;6174;49.058;8.524;2022-09-09T12:11:50;2.87;;;1.00;;
12222;SDS011;6174;49.058;8.524;2022-09-09T12:14:19;1.27;;;1.03;;
12222;SDS011;6174;49.058;8.524;2022-09-09T12:16:47;4.20;;;1.20;;
12222;SDS011;6174;49.058;8.524;2022-09-09T12:19:15;2.47;;;1.03;;
12222;SDS011;6174;49.058;8.524;2022-09-09T12:21:46;2.10;;;1.00;;
12222;SDS011;6174;49.058;8.524;2022-09-09T12:24:20;2.60;;;1.07;;
12222;SDS011;6174;49.058;8.524;2022-09-09T12:26:56;2.83;;;0.93;;
12222;SDS011;6174;49.058;8.524;2022-09-09T12:29:27;2.37;;;1.10;;
12222;SDS011;6174;49.058;8.524;2022-09-09T12:32:02;1.80;;;1.10;;
12222;SDS011;6174;49.058;8.524;2022-09-09T12:34:35;4.13;;;1.30;;
12222;SDS011;6174;49.058;8.524;2022-09-09T12:37:08;2.00;;;1.10;;
12222;SDS011;6174;49.058;8.524;2022-09-09T12:39:44;1.67;;;1.00;;
12222;SDS011;6174;49.058;8.524;2022-09-09T12:42:17;1.47;;;0.90;;
12222;SDS011;6174;49.058;8.524;2022-09-09T12:44:55;1.97;;;1.17;;
12222;SDS011;6174;49.058;8.524;2022-09-09T12:47:24;2.57;;;1.23;;
12222;SDS011;6174;49.058;8.524;2022-09-09T12:49:57;3.03;;;1.30;;
12222;SDS011;6174;49.058;8.524;2022-09-09T12:52:25;2.57;;;1.30;;
12222;SDS011;6174;49.058;8.524;2022-09-09T12:54:56;2.83;;;1.20;;
12222;SDS011;6174;49.058;8.524;2022-09-09T12:57:26;3.93;;;1.20;;
12222;SDS011;6174;49.058;8.524;2022-09-09T13:00:04;4.23;;;1.00;;
12222;SDS011;6174;49.058;8.524;2022-09-09T13:02:36;3.87;;;1.37;;
12222;SDS011;6174;49.058;8.524;2022-09-09T13:05:13;3.33;;;1.30;;
12222;SDS011;6174;49.058;8.524;2022-09-09T13:07:42;2.90;;;1.23;;
12222;SDS011;6174;49.058;8.524;2022-09-09T13:10:10;5.37;;;1.20;;
12222;SDS011;6174;49.058;8.524;2022-09-09T13:12:39;2.07;;;1.20;;
12222;SDS011;6174;49.058;8.524;2022-09-09T13:15:10;3.93;;;1.27;;
12222;SDS011;6174;49.058;8.524;2022-09-09T13:17:49;1.43;;;0.70;;
12222;SDS011;6174;49.058;8.524;2022-09-09T13:20:20;0.63;;;0.53;;
12222;SDS011;6174;49.058;8.524;2022-09-09T13:22:48;1.57;;;0.83;;
12222;SDS011;6174;49.058;8.524;2022-09-09T13:25:18;2.63;;;1.43;;
12222;SDS011;6174;49.058;8.524;2022-09-09T13:27:58;2.10;;;1.20;;
12222;SDS011;6174;49.058;8.524;2022-09-09T13:30:28;2.33;;;1.33;;
12222;SDS011;6174;49.058;8.524;2022-09-09T13:33:00;2.07;;;1.07;;
12222;SDS011;6174;49.058;8.524;2022-09-09T13:35:28;2.83;;;1.50;;
12222;SDS011;6174;49.058;8.524;2022-09-09T13:37:56;3.57;;;1.40;;
12222;SDS011;6174;49.058;8.524;2022-09-09T13:40:23;2.73;;;1.50;;
12222;SDS011;6174;49.058;8.524;2022-09-09T13:42:51;4.10;;;1.20;;
12222;SDS011;6174;49.058;8.524;2022-09-09T13:45:23;3.67;;;1.73;;
12222;SDS011;6174;49.058;8.524;2022-09-09T13:47:52;3.27;;;1.70;;
12222;SDS011;6174;49.058;8.524;2022-09-09T13:50:20;3.00;;;1.23;;
12222;SDS011;6174;49.058;8.524;2022-09-09T13:52:48;2.57;;;1.23;;
12222;SDS011;6174;49.058;8.524;2022-09-09T13:55:16;3.33;;;1.57;;
12222;SDS011;6174;49.058;8.524;2022-09-09T13:57:50;2.90;;;1.20;;
12222;SDS011;6174;49.058;8.524;2022-09-09T14:00:17;4.17;;;1.30;;
12222;SDS011;6174;49.058;8.524;2022-09-09T14:02:47;3.70;;;1.30;;
12222;SDS011;6174;49.058;8.524;2022-09-09T14:05:13;2.20;;;1.20;;
12222;SDS011;6174;49.058;8.524;2022-09-09T14:07:41;3.17;;;1.40;;
12222;SDS011;6174;49.058;8.524;2022-09-09T14:10:08;4.20;;;1.53;;
12222;SDS011;6174;49.058;8.524;2022-09-09T14:12:36;2.87;;;1.20;;
12222;SDS011;6174;49.058;8.524;2022-09-09T14:15:03;4.03;;;1.23;;
12222;SDS011;6174;49.058;8.524;2022-09-09T14:17:31;1.73;;;1.10;;
12222;SDS011;6174;49.058;8.524;2022-09-09T14:20:00;2.63;;;1.17;;
12222;SDS011;6174;49.058;8.524;2022-09-09T14:22:27;2.30;;;1.07;;
12222;SDS011;6174;49.058;8.524;2022-09-09T14:24:54;3.97;;;1.70;;
12222;SDS011;6174;49.058;8.524;2022-09-09T14:27:22;5.00;;;1.73;;
12222;SDS011;6174;49.058;8.524;2022-09-09T14:29:50;2.13;;;1.53;;
12222;SDS011;6174;49.058;8.524;2022-09-09T14:32:17;2.23;;;1.07;;
12222;SDS011;6174;49.058;8.524;2022-09-09T14:34:44;4.53;;;1.53;;
12222;SDS011;6174;49.058;8.524;2022-09-09T14:37:14;4.27;;;2.00;;
12222;SDS011;6174;49.058;8.524;2022-09-09T14:39:41;5.43;;;2.40;;
12222;SDS011;6174;49.058;8.524;2022-09-09T14:42:09;3.27;;;1.70;;
12222;SDS011;6174;49.058;8.524;2022-09-09T14:44:36;2.77;;;1.30;;
12222;SDS011;6174;49.058;8.524;2022-09-09T14:47:03;4.90;;;2.43;;
12222;SDS011;6174;49.058;8.524;2022-09-09T14:49:30;3.77;;;2.57;;
12222;SDS011;6174;49.058;8.524;2022-09-09T14:51:57;3.37;;;1.83;;
12222;SDS011;6174;49.058;8.524;2022-09-09T14:54:25;3.17;;;1.60;;
12222;SDS011;6174;49.058;8.524;2022-09-09T14:56:53;4.87;;;1.53;;
12222;SDS011;6174;49.058;8.524;2022-09-09T14:59:20;3.03;;;1.40;;
12222;SDS011;6174;49.058;8.524;2022-09-09T15:01:48;2.60;;;1.20;;
12222;SDS011;6174;49.058;8.524;2022-09-09T15:04:14;3.87;;;1.30;;
12222;SDS011;6174;49.058;8.524;2022-09-09T15:06:41;6.13;;;1.47;;
12222;SDS011;6174;49.058;8.524;2022-09-09T15:09:12;3.40;;;1.50;;
12222;SDS011;6174;49.058;8.524;2022-09-09T15:11:40;3.33;;;1.50;;
12222;SDS011;6174;49.058;8.524;2022-09-09T15:14:07;4.53;;;1.70;;
12222;SDS011;6174;49.058;8.524;2022-09-09T15:16:35;4.77;;;1.50;;
12222;SDS011;6174;49.058;8.524;2022-09-09T15:19:02;3.00;;;1.30;;
12222;SDS011;6174;49.058;8.524;2022-09-09T15:21:30;1.80;;;1.47;;
12222;SDS011;6174;49.058;8.524;2022-09-09T15:23:58;5.17;;;1.50;;
12222;SDS011;6174;49.058;8.524;2022-09-09T15:26:25;3.47;;;1.37;;
12222;SDS011;6174;49.058;8.524;2022-09-09T15:28:53;3.27;;;1.50;;
12222;SDS011;6174;49.058;8.524;2022-09-09T15:31:21;3.87;;;1.17;;
12222;SDS011;6174;49.058;8.524;2022-09-09T15:33:49;4.20;;;1.40;;
12222;SDS011;6174;49.058;8.524;2022-09-09T15:36:17;2.10;;;1.40;;
12222;SDS011;6174;49.058;8.524;2022-09-09T15:38:45;3.13;;;1.30;;
12222;SDS011;6174;49.058;8.524;2022-09-09T15:41:12;2.97;;;1.43;;
12222;SDS011;6174;49.058;8.524;2022-09-09T15:43:42;3.37;;;1.30;;
12222;SDS011;6174;49.058;8.524;2022-09-09T15:46:23;3.40;;;1.30;;
12222;SDS011;6174;49.058;8.524;2022-09-09T15:48:55;3.57;;;1.57;;
12222;SDS011;6174;49.058;8.524;2022-09-09T15:51:23;2.63;;;1.37;;
12222;SDS011;6174;49.058;8.524;2022-09-09T15:53:54;2.07;;;1.60;;
12222;SDS011;6174;49.058;8.524;2022-09-09T15:56:22;4.17;;;1.50;;
12222;SDS011;6174;49.058;8.524;2022-09-09T15:58:49;3.00;;;1.27;;
12222;SDS011;6174;49.058;8.524;2022-09-09T16:01:17;3.80;;;1.30;;
12222;SDS011;6174;49.058;8.524;2022-09-09T16:03:45;1.73;;;1.17;;
12222;SDS011;6174;49.058;8.524;2022-09-09T16:06:14;2.17;;;1.30;;
12222;SDS011;6174;49.058;8.524;2022-09-09T16:08:42;2.00;;;0.97;;
12222;SDS011;6174;49.058;8.524;2022-09-09T16:11:11;1.80;;;1.30;;
12222;SDS011;6174;49.058;8.524;2022-09-09T16:13:40;2.33;;;0.97;;
12222;SDS011;6174;49.058;8.524;2022-09-09T16:16:09;2.73;;;0.97;;
12222;SDS011;6174;49.058;8.524;2022-09-09T16:18:38;2.80;;;1.10;;
12222;SDS011;6174;49.058;8.524;2022-09-09T16:21:07;1.97;;;1.30;;
12222;SDS011;6174;49.058;8.524;2022-09-09T16:23:37;2.20;;;0.97;;
12222;SDS011;6174;49.058;8.524;2022-09-09T16:26:04;2.70;;;1.13;;
12222;SDS011;6174;49.058;8.524;2022-09-09T16:28:31;0.93;;;0.80;;
12222;SDS011;6174;49.058;8.524;2022-09-09T16:30:57;1.20;;;0.73;;
12222;SDS011;6174;49.058;8.524;2022-09-09T16:33:24;1.60;;;0.87;;
12222;SDS011;6174;49.058;8.524;2022-09-09T16:35:51;1.40;;;1.30;;
12222;SDS011;6174;49.058;8.524;2022-09-09T16:38:19;1.80;;;1.53;;
12222;SDS011;6174;49.058;8.524;2022-09-09T16:40:46;3.73;;;0.90;;
12222;SDS011;6174;49.058;8.524;2022-09-09T16:43:15;2.47;;;1.03;;
12222;SDS011;6174;49.058;8.524;2022-09-09T16:45:42;1.70;;;1.20;;
12222;SDS011;6174;49.058;8.524;2022-09-09T16:48:09;2.37;;;1.87;;
12222;SDS011;6174;49.058;8.524;2022-09-09T16:50:36;2.17;;;0.93;;
12222;SDS011;6174;49.058;8.524;2022-09-09T16:53:04;1.97;;;1.37;;
12222;SDS011;6174;49.058;8.524;2022-09-09T16:55:38;2.13;;;1.00;;
12222;SDS011;6174;49.058;8.524;2022-09-09T16:58:06;2.27;;;1.20;;
12222;SDS011;6174;49.058;8.524;2022-09-09T17:00:34;2.73;;;1.20;;
12222;SDS011;6174;49.058;8.524;2022-09-09T17:03:01;3.60;;;1.20;;
12222;SDS011;6174;49.058;8.524;2022-09-09T17:05:28;2.23;;;1.33;;
12222;SDS011;6174;49.058;8.524;2022-09-09T17:07:55;2.83;;;1.23;;
12222;SDS011;6174;49.058;8.524;2022-09-09T17:10:22;2.67;;;1.13;;
12222;SDS011;6174;49.058;8.524;2022-09-09T17:12:51;3.30;;;1.10;;
12222;SDS011;6174;49.058;8.524;2022-09-09T17:15:18;2.03;;;1.07;;
12222;SDS011;6174;49.058;8.524;2022-09-09T17:17:46;4.00;;;1.43;;
12222;SDS011;6174;49.058;8.524;2022-09-09T17:20:14;4.83;;;1.33;;
12222;SDS011;6174;49.058;8.524;2022-09-09T17:22:42;3.47;;;1.60;;
12222;SDS011;6174;49.058;8.524;2022-09-09T17:25:08;2.60;;;1.40;;
12222;SDS011;6174;49.058;8.524;2022-09-09T17:27:35;1.30;;;1.20;;
12222;SDS011;6174;49.058;8.524;2022-09-09T17:30:04;2.07;;;1.47;;
12222;SDS011;6174;49.058;8.524;2022-09-09T17:32:31;2.50;;;1.50;;
12222;SDS011;6174;49.058;8.524;2022-09-09T17:34:58;3.50;;;1.37;;
12222;SDS011;6174;49.058;8.524;2022-09-09T17:37:25;2.73;;;1.50;;
12222;SDS011;6174;49.058;8.524;2022-09-09T17:39:52;1.50;;;1.40;;
12222;SDS011;6174;49.058;8.524;2022-09-09T17:42:18;1.97;;;1.30;;
12222;SDS011;6174;49.058;8.524;2022-09-09T17:44:45;2.37;;;1.03;;
12222;SDS011;6174;49.058;8.524;2022-09-09T17:47:13;6.10;;;1.43;;
12222;SDS011;6174;49.058;8.524;2022-09-09T17:49:40;3.67;;;1.23;;
12222;SDS011;6174;49.058;8.524;2022-09-09T17:52:07;2.03;;;1.17;;
12222;SDS011;6174;49.058;8.524;2022-09-09T17:54:33;1.33;;;1.00;;
12222;SDS011;6174;49.058;8.524;2022-09-09T17:57:00;2.90;;;1.40;;
12222;SDS011;6174;49.058;8.524;2022-09-09T17:59:27;2.07;;;1.20;;
12222;SDS011;6174;49.058;8.524;2022-09-09T18:01:54;3.87;;;1.70;;
12222;SDS011;6174;49.058;8.524;2022-09-09T18:04:23;4.17;;;1.53;;
12222;SDS011;6174;49.058;8.524;2022-09-09T18:06:51;4.67;;;1.83;;
12222;SDS011;6174;49.058;8.524;2022-09-09T18:09:20;5.30;;;2.10;;
12222;SDS011;6174;49.058;8.524;2022-09-09T18:11:49;2.87;;;1.83;;
12222;SDS011;6174;49.058;8.524;2022-09-09T18:14:19;4.37;;;1.90;;
12222;SDS011;6174;49.058;8.524;2022-09-09T18:16:49;2.67;;;1.80;;
12222;SDS011;6174;49.058;8.524;2022-09-09T18:19:17;2.60;;;1.80;;
12222;SDS011;6174;49.058;8.524;2022-09-09T18:21:54;6.53;;;1.90;;
12222;SDS011;6174;49.058;8.524;2022-09-09T18:24:23;3.13;;;1.60;;
12222;SDS011;6174;49.058;8.524;2022-09-09T18:26:50;2.10;;;1.40;;
12222;SDS011;6174;49.058;8.524;2022-09-09T18:29:18;2.47;;;1.50;;
12222;SDS011;6174;49.058;8.524;2022-09-09T18:31:49;2.87;;;1.83;;
12222;SDS011;6174;49.058;8.524;2022-09-09T18:34:17;3.30;;;1.90;;
12222;SDS011;6174;49.058;8.524;2022-09-09T18:36:48;4.20;;;1.53;;
12222;SDS011;6174;49.058;8.524;2022-09-09T18:39:17;3.80;;;1.80;;
12222;SDS011;6174;49.058;8.524;2022-09-09T18:41:46;5.40;;;1.90;;
12222;SDS011;6174;49.058;8.524;2022-09-09T18:44:17;3.40;;;2.00;;
12222;SDS011;6174;49.058;8.524;2022-09-09T18:46:45;4.63;;;2.37;;
12222;SDS011;6174;49.058;8.524;2022-09-09T18:49:12;3.73;;;2.00;;
12222;SDS011;6174;49.058;8.524;2022-09-09T18:51:40;3.00;;;1.80;;
12222;SDS011;6174;49.058;8.524;2022-09-09T18:54:09;3.87;;;1.97;;
12222;SDS011;6174;49.058;8.524;2022-09-09T18:56:38;6.23;;;1.70;;
12222;SDS011;6174;49.058;8.524;2022-09-09T18:59:06;3.33;;;1.90;;
12222;SDS011;6174;49.058;8.524;2022-09-09T19:01:35;3.10;;;1.83;;
12222;SDS011;6174;49.058;8.524;2022-09-09T19:04:03;2.63;;;1.70;;
12222;SDS011;6174;49.058;8.524;2022-09-09T19:06:31;2.47;;;1.60;;
12222;SDS011;6174;49.058;8.524;2022-09-09T19:08:59;2.67;;;1.70;;
12222;SDS011;6174;49.058;8.524;2022-09-09T19:11:27;1.60;;;1.33;;
12222;SDS011;6174;49.058;8.524;2022-09-09T19:13:55;3.03;;;1.40;;
12222;SDS011;6174;49.058;8.524;2022-09-09T19:16:23;3.00;;;1.80;;